createdAt,value
2022-12-19T00:01:54.200Z,25.85
2022-12-19T00:06:58.841Z,28.77
2022-12-19T00:12:00.284Z,27.50
2022-12-19T00:17:01.782Z,25.02
2022-12-19T00:22:07.101Z,26.33
2022-12-19T00:27:11.220Z,22.58
2022-12-19T00:32:12.672Z,26.75
2022-12-19T00:37:16.366Z,27.08
2022-12-19T00:42:17.840Z,25.70
2022-12-19T00:47:19.224Z,26.40
2022-12-19T00:52:20.654Z,27.83
2022-12-19T00:57:24.246Z,27.45
2022-12-19T01:02:25.792Z,30.55
2022-12-19T01:07:27.295Z,28.38
2022-12-19T01:12:46.920Z,23.80
2022-12-19T01:17:49.318Z,26.25
2022-12-19T01:22:50.710Z,25.30
2022-12-19T01:27:54.650Z,29.88
2022-12-19T01:32:57.269Z,27.80
2022-12-19T01:38:07.927Z,29.13
2022-12-19T01:43:13.978Z,29.20
2022-12-19T01:48:18.500Z,26.50
2022-12-19T01:53:22.250Z,25.10
2022-12-19T01:58:24.078Z,28.23
2022-12-19T02:03:31.775Z,26.83
2022-12-19T02:08:35.294Z,24.75
2022-12-19T02:13:36.798Z,23.70
2022-12-19T02:19:07.776Z,29.38
2022-12-19T02:24:26.878Z,28.38
2022-12-19T02:29:49.520Z,30.02
2022-12-19T02:40:19.950Z,25.73
2022-12-19T02:45:28.848Z,26.45
2022-12-19T02:50:45.312Z,28.42
2022-12-19T02:56:02.206Z,24.17
2022-12-19T03:01:46.035Z,25.38
2022-12-19T03:07:21.292Z,24.13
2022-12-19T03:12:29.075Z,24.58
2022-12-19T03:17:36.681Z,23.40
2022-12-19T03:22:38.281Z,26.33
2022-12-19T03:27:40.172Z,22.58
2022-12-19T03:32:44.618Z,24.15
2022-12-19T03:37:47.819Z,23.95
2022-12-19T03:43:11.624Z,26.83
2022-12-19T03:48:41.210Z,22.05
2022-12-19T03:53:55.327Z,26.90
2022-12-19T03:59:05.245Z,28.55
2022-12-19T04:04:10.586Z,25.58
2022-12-19T04:09:13.055Z,32.17
2022-12-19T04:14:23.278Z,24.75
2022-12-19T04:19:37.482Z,21.83
2022-12-19T04:24:46.270Z,24.30
2022-12-19T04:29:51.452Z,21.85
2022-12-19T04:34:52.987Z,23.02
2022-12-19T04:39:54.437Z,24.48
2022-12-19T04:44:55.882Z,26.45
2022-12-19T04:49:57.344Z,26.73
2022-12-19T04:54:58.845Z,25.10
2022-12-19T05:00:00.324Z,23.42
2022-12-19T05:05:01.727Z,25.90
2022-12-19T05:10:03.721Z,23.15
2022-12-19T05:15:05.872Z,24.48
2022-12-19T05:20:08.768Z,24.75
2022-12-19T05:25:10.310Z,26.00
2022-12-19T05:30:12.136Z,25.15
2022-12-19T05:35:13.693Z,22.65
2022-12-19T05:40:15.259Z,23.17
2022-12-19T05:45:16.848Z,26.10
2022-12-19T05:50:18.395Z,22.55
2022-12-19T05:55:19.872Z,23.75
2022-12-19T06:00:22.070Z,22.50
2022-12-19T06:05:23.667Z,23.25
2022-12-19T06:10:25.169Z,22.80
2022-12-19T06:15:26.683Z,26.75
2022-12-19T06:20:28.135Z,23.77
2022-12-19T06:25:29.777Z,22.67
2022-12-19T06:30:31.290Z,23.27
2022-12-19T06:35:32.805Z,25.35
2022-12-19T06:40:53.050Z,23.58
2022-12-19T06:45:57.104Z,23.25
2022-12-19T06:50:58.678Z,20.13
2022-12-19T06:56:00.524Z,26.27
2022-12-19T07:01:02.267Z,25.88
2022-12-19T07:06:05.175Z,27.73
2022-12-19T07:11:06.738Z,25.73
2022-12-19T07:16:08.697Z,29.75
2022-12-19T07:21:13.533Z,23.45
2022-12-19T07:26:15.080Z,21.95
2022-12-19T07:31:16.719Z,26.60
2022-12-19T07:36:18.272Z,21.73
2022-12-19T07:41:19.815Z,27.70
2022-12-19T07:46:22.064Z,31.48
2022-12-19T07:51:23.831Z,27.20
2022-12-19T07:56:25.778Z,30.60
2022-12-19T08:02:40.954Z,27.33
2022-12-19T08:06:49.596Z,27.85
2022-12-19T08:11:51.208Z,23.42
2022-12-19T08:17:21.393Z,26.75
2022-12-19T08:22:14.169Z,26.38
2022-12-19T08:27:16.969Z,27.05
2022-12-19T08:32:21.477Z,26.35
2022-12-19T08:37:23.406Z,26.58
2022-12-19T08:42:24.951Z,25.90
2022-12-19T08:47:26.424Z,22.42
2022-12-19T08:52:27.942Z,22.95
2022-12-19T08:57:29.772Z,23.77
2022-12-19T09:02:31.775Z,26.73
2022-12-19T09:07:38.825Z,25.90
2022-12-19T09:12:40.561Z,27.83
2022-12-19T09:17:42.133Z,24.67
2022-12-19T09:22:44.581Z,24.70
2022-12-19T09:28:17.904Z,25.45
2022-12-19T09:33:07.418Z,24.83
2022-12-19T09:38:09.031Z,25.75
2022-12-19T09:43:21.133Z,25.52
2022-12-19T09:48:25.032Z,22.92
2022-12-19T09:53:39.806Z,24.52
2022-12-19T09:58:52.570Z,25.98
2022-12-19T10:04:02.402Z,24.80
2022-12-19T10:10:27.777Z,22.60
2022-12-19T10:14:32.926Z,22.92
2022-12-19T10:19:40.460Z,19.65
2022-12-19T10:25:09.393Z,19.35
2022-12-19T10:30:18.351Z,18.45
2022-12-19T10:35:20.918Z,15.55
2022-12-19T10:40:34.743Z,16.45
2022-12-19T10:45:46.999Z,11.10
2022-12-19T10:50:49.922Z,12.88
2022-12-19T10:55:54.069Z,11.50
2022-12-19T11:01:13.812Z,16.17
2022-12-19T11:06:34.113Z,12.77
2022-12-19T11:13:02.064Z,15.75
2022-12-19T11:23:49.060Z,16.17
2022-12-19T11:29:54.647Z,17.70
2022-12-19T11:30:59.414Z,18.38
2022-12-19T11:33:16.312Z,16.50
2022-12-19T11:38:32.760Z,20.92
2022-12-19T11:43:46.512Z,18.88
2022-12-19T11:48:57.735Z,16.70
2022-12-19T11:54:13.917Z,20.75
2022-12-19T11:59:19.515Z,20.02
2022-12-19T12:04:38.883Z,23.20
2022-12-19T12:13:09.978Z,22.35
2022-12-19T12:28:10.715Z,22.03
2022-12-19T12:31:32.467Z,22.20
2022-12-19T12:31:40.802Z,21.63
2022-12-19T12:35:22.331Z,19.08
2022-12-19T12:38:19.088Z,21.42
2022-12-19T12:43:39.564Z,20.98
2022-12-19T12:48:53.210Z,20.80
2022-12-19T12:54:05.043Z,19.35
2022-12-19T12:59:20.936Z,19.15
2022-12-19T13:04:29.748Z,20.42
2022-12-19T13:09:36.576Z,23.75
2022-12-19T13:14:37.982Z,21.77
2022-12-19T13:19:56.690Z,20.95
2022-12-19T13:25:00.377Z,23.38
2022-12-19T13:30:15.338Z,23.38
2022-12-19T13:36:49.974Z,23.58
2022-12-19T13:40:44.352Z,23.15
2022-12-19T13:46:18.181Z,25.27
2022-12-19T13:51:19.955Z,24.98
2022-12-19T13:56:22.076Z,25.80
2022-12-19T14:01:28.146Z,32.22
2022-12-19T14:06:40.144Z,45.08
2022-12-19T14:13:46.126Z,28.20
2022-12-19T14:17:14.283Z,28.88
2022-12-19T14:22:25.523Z,27.42
2022-12-19T14:28:26.777Z,24.63
2022-12-19T14:33:39.438Z,22.25
2022-12-19T14:39:23.551Z,24.70
2022-12-19T14:54:03.002Z,28.35
2022-12-19T14:54:06.397Z,26.15
2022-12-19T14:56:17.563Z,25.98
2022-12-19T15:01:10.631Z,27.30
2022-12-19T15:07:09.059Z,23.10
2022-12-19T15:14:03.849Z,24.02
2022-12-19T15:17:26.618Z,25.98
2022-12-19T15:22:28.120Z,28.98
2022-12-19T15:27:29.608Z,32.00
2022-12-19T15:32:31.064Z,44.67
2022-12-19T15:37:32.613Z,55.50
2022-12-19T15:42:34.852Z,42.10
2022-12-19T15:47:37.408Z,32.17
2022-12-19T15:52:38.893Z,28.05
2022-12-19T15:57:43.518Z,29.95
2022-12-19T16:08:13.408Z,31.85
2022-12-19T16:13:20.658Z,25.98
2022-12-19T16:18:22.260Z,26.50
2022-12-19T16:23:25.464Z,27.40
2022-12-19T16:28:30.556Z,29.77
2022-12-19T16:33:32.237Z,28.42
2022-12-19T16:38:33.785Z,28.30
2022-12-19T16:43:38.666Z,27.42
2022-12-19T16:48:40.110Z,28.77
2022-12-19T16:53:41.524Z,32.00
2022-12-19T16:58:43.495Z,41.13
2022-12-19T17:03:45.765Z,37.08
2022-12-19T17:08:48.077Z,34.97
2022-12-19T17:13:52.500Z,37.10
2022-12-19T17:18:53.999Z,42.58
2022-12-19T17:23:55.669Z,36.03
2022-12-19T17:28:57.136Z,40.85
2022-12-19T17:33:58.618Z,34.92
2022-12-19T17:39:00.241Z,31.13
2022-12-19T17:44:01.712Z,33.78
2022-12-19T17:49:03.502Z,37.75
2022-12-19T17:54:10.329Z,39.92
2022-12-19T17:59:12.052Z,34.53
2022-12-19T18:04:15.437Z,32.78
2022-12-19T18:09:24.656Z,30.33
2022-12-19T18:14:26.139Z,26.65
2022-12-19T18:19:30.908Z,52.42
2022-12-19T18:24:32.299Z,39.20
2022-12-19T18:29:33.768Z,28.58
2022-12-19T18:34:35.674Z,27.88
2022-12-19T18:39:37.085Z,26.77
2022-12-19T18:44:38.498Z,27.50
2022-12-19T18:49:39.913Z,28.80
2022-12-19T18:54:42.574Z,22.95
2022-12-19T18:59:43.997Z,20.88
2022-12-19T19:04:45.481Z,21.83
2022-12-19T19:09:47.078Z,20.58
2022-12-19T19:14:48.497Z,22.90
2022-12-19T19:19:49.931Z,20.95
2022-12-19T19:24:51.341Z,19.40
2022-12-19T19:29:52.755Z,22.02
2022-12-19T19:34:55.695Z,23.83
2022-12-19T19:39:57.172Z,30.10
2022-12-19T19:44:58.633Z,27.85
2022-12-19T19:50:00.210Z,23.05
2022-12-19T19:55:01.739Z,26.80
2022-12-19T20:00:09.026Z,25.25
2022-12-19T20:05:11.579Z,22.20
2022-12-19T20:10:13.086Z,21.92
2022-12-19T20:15:14.533Z,20.42
2022-12-19T20:20:15.968Z,30.83
2022-12-19T20:25:18.486Z,45.05
2022-12-19T20:30:20.014Z,47.25
2022-12-19T20:35:21.478Z,38.08
2022-12-19T20:40:22.915Z,33.97
2022-12-19T20:45:24.417Z,36.75
2022-12-19T20:50:25.890Z,36.20
2022-12-19T20:55:27.355Z,29.92
2022-12-19T21:00:28.805Z,28.77
2022-12-19T21:05:30.267Z,24.80
2022-12-19T21:10:31.677Z,27.58
2022-12-19T21:15:34.204Z,31.75
2022-12-19T21:20:38.113Z,29.58
2022-12-19T21:25:39.711Z,33.03
2022-12-19T21:30:41.374Z,28.02
2022-12-19T21:35:42.767Z,27.83
2022-12-19T21:40:44.642Z,28.15
2022-12-19T21:45:46.126Z,25.30
2022-12-19T21:50:55.482Z,24.80
2022-12-19T21:56:10.063Z,29.73
2022-12-19T22:01:13.573Z,36.65
2022-12-19T22:06:25.647Z,27.90
2022-12-19T22:11:30.196Z,25.08
2022-12-19T22:16:32.704Z,26.50
2022-12-19T22:21:34.862Z,29.52
2022-12-19T22:26:37.022Z,22.88
2022-12-19T22:31:39.260Z,24.55
2022-12-19T22:36:42.570Z,27.10
2022-12-19T22:41:44.550Z,27.15
2022-12-19T22:46:46.352Z,23.08
2022-12-19T22:51:47.863Z,20.10
2022-12-19T22:56:51.929Z,20.75
2022-12-19T23:01:54.158Z,19.27
2022-12-19T23:06:55.786Z,20.40
2022-12-19T23:11:57.229Z,20.27
2022-12-19T23:16:58.747Z,25.67
2022-12-19T23:22:00.464Z,27.65
2022-12-19T23:27:02.027Z,20.05
2022-12-19T23:32:03.659Z,19.27
2022-12-19T23:37:13.003Z,19.50
2022-12-19T23:42:14.585Z,16.85
2022-12-19T23:47:16.692Z,19.90
2022-12-19T23:52:18.225Z,17.42
2022-12-19T23:57:19.657Z,24.92
